createdAt,value
2019-02-02T00:01:01.452Z,21.23
2019-02-02T00:03:31.423Z,21.63
2019-02-02T00:05:58.748Z,22.57
2019-02-02T00:08:26.083Z,24.43
2019-02-02T00:10:53.350Z,26.73
2019-02-02T00:13:20.624Z,26.93
2019-02-02T00:15:47.912Z,26.43
2019-02-02T00:18:15.303Z,28.30
2019-02-02T00:20:42.559Z,30.40
2019-02-02T00:23:09.809Z,30.53
2019-02-02T00:25:37.347Z,31.47
2019-02-02T00:28:04.651Z,30.37
2019-02-02T00:30:32.163Z,32.03
2019-02-02T00:32:59.439Z,32.93
2019-02-02T00:35:26.928Z,33.97
2019-02-02T00:37:54.209Z,34.43
2019-02-02T00:40:21.475Z,32.10
2019-02-02T00:42:48.722Z,39.90
2019-02-02T00:45:16.044Z,35.93
2019-02-02T00:47:43.472Z,30.23
2019-02-02T00:50:11.128Z,30.20
2019-02-02T00:52:38.413Z,31.50
2019-02-02T00:55:05.664Z,29.27
2019-02-02T00:57:32.903Z,27.23
2019-02-02T01:00:00.209Z,29.80
2019-02-02T01:02:27.527Z,26.60
2019-02-02T01:04:55.513Z,25.27
2019-02-02T01:07:22.808Z,26.00
2019-02-02T01:09:50.430Z,25.60
2019-02-02T01:12:17.668Z,24.53
2019-02-02T01:14:44.930Z,25.43
2019-02-02T01:17:12.192Z,24.33
2019-02-02T01:19:39.449Z,25.30
2019-02-02T01:22:06.710Z,23.57
2019-02-02T01:24:33.971Z,24.47
2019-02-02T01:27:01.263Z,21.90
2019-02-02T01:29:28.637Z,24.07
2019-02-02T01:31:55.893Z,19.90
2019-02-02T01:34:23.168Z,23.00
2019-02-02T01:37:09.889Z,23.93
2019-02-02T01:42:35.968Z,22.60
2019-02-02T01:45:04.355Z,23.27
2019-02-02T01:47:31.596Z,23.07
2019-02-02T01:49:59.393Z,24.37
2019-02-02T01:52:26.645Z,22.03
2019-02-02T01:54:54.018Z,23.50
2019-02-02T01:57:21.271Z,22.50
2019-02-02T01:59:48.551Z,24.90
2019-02-02T02:02:15.891Z,24.70
2019-02-02T02:04:43.160Z,22.53
2019-02-02T02:07:10.951Z,23.63
2019-02-02T02:09:38.750Z,26.20
2019-02-02T02:12:06.025Z,23.33
2019-02-02T02:14:33.569Z,24.33
2019-02-02T02:17:00.821Z,22.77
2019-02-02T02:19:28.236Z,21.40
2019-02-02T02:21:55.845Z,23.37
2019-02-02T02:24:23.205Z,22.50
2019-02-02T02:26:50.461Z,23.00
2019-02-02T02:29:18.076Z,25.60
2019-02-02T02:31:45.629Z,28.20
2019-02-02T02:34:12.975Z,24.17
2019-02-02T02:36:40.495Z,23.83
2019-02-02T02:39:08.105Z,24.47
2019-02-02T02:41:35.366Z,23.83
2019-02-02T02:44:02.756Z,26.70
2019-02-02T02:46:49.502Z,22.17
2019-02-02T02:49:17.016Z,22.10
2019-02-02T02:51:44.243Z,25.47
2019-02-02T02:54:30.994Z,25.07
2019-02-02T02:56:58.286Z,24.73
2019-02-02T02:59:25.558Z,27.90
2019-02-02T03:01:52.798Z,24.23
2019-02-02T03:04:20.164Z,24.67
2019-02-02T03:06:47.443Z,24.70
2019-02-02T03:09:14.967Z,26.83
2019-02-02T03:11:42.468Z,30.73
2019-02-02T03:14:10.098Z,26.70
2019-02-02T03:16:37.343Z,25.60
2019-02-02T03:19:04.678Z,28.00
2019-02-02T03:21:32.010Z,25.87
2019-02-02T03:23:59.368Z,26.50
2019-02-02T03:26:26.609Z,27.27
2019-02-02T03:28:53.924Z,27.50
2019-02-02T03:31:21.476Z,24.73
2019-02-02T03:33:48.725Z,27.33
2019-02-02T03:36:16.262Z,26.00
2019-02-02T03:38:43.508Z,26.20
2019-02-02T03:41:10.758Z,24.67
2019-02-02T03:43:38.118Z,25.57
2019-02-02T03:46:05.797Z,30.23
2019-02-02T03:48:33.141Z,27.43
2019-02-02T03:51:00.686Z,26.97
2019-02-02T03:53:27.933Z,27.40
2019-02-02T03:55:55.206Z,26.10
2019-02-02T03:58:22.457Z,27.07
2019-02-02T04:00:49.697Z,25.10
2019-02-02T04:03:16.970Z,24.90
2019-02-02T04:05:44.217Z,27.33
2019-02-02T04:08:11.709Z,29.47
2019-02-02T04:10:58.463Z,28.63
2019-02-02T04:13:25.721Z,27.87
2019-02-02T04:15:53.236Z,27.07
2019-02-02T04:18:20.795Z,26.83
2019-02-02T04:20:48.085Z,27.23
2019-02-02T04:23:15.451Z,26.60
2019-02-02T04:25:42.685Z,28.10
2019-02-02T04:28:09.928Z,26.73
2019-02-02T04:30:37.464Z,26.30
2019-02-02T04:33:05.212Z,27.27
2019-02-02T04:35:32.557Z,26.77
2019-02-02T04:37:59.899Z,24.77
2019-02-02T04:40:27.162Z,25.00
2019-02-02T04:42:54.434Z,28.83
2019-02-02T04:45:21.701Z,25.07
2019-02-02T04:47:48.950Z,27.43
2019-02-02T04:50:16.524Z,24.43
2019-02-02T04:52:43.933Z,25.50
2019-02-02T04:55:11.895Z,24.67
2019-02-02T04:57:39.231Z,25.57
2019-02-02T05:00:08.352Z,25.43
2019-02-02T05:02:36.167Z,25.70
2019-02-02T05:05:04.124Z,25.03
2019-02-02T05:07:31.428Z,24.83
2019-02-02T05:09:58.664Z,29.80
2019-02-02T05:12:25.921Z,24.33
2019-02-02T05:14:53.464Z,26.17
2019-02-02T05:17:20.734Z,25.37
2019-02-02T05:19:47.997Z,25.53
2019-02-02T05:22:15.224Z,26.27
2019-02-02T05:24:42.491Z,25.07
2019-02-02T05:27:09.770Z,29.23
2019-02-02T05:29:41.656Z,23.33
2019-02-02T05:32:06.186Z,25.43
2019-02-02T05:34:33.590Z,23.67
2019-02-02T05:37:00.877Z,24.57
2019-02-02T05:39:28.144Z,24.93
2019-02-02T05:41:55.499Z,24.63
2019-02-02T05:44:22.757Z,23.97
2019-02-02T05:46:50.120Z,25.10
2019-02-02T05:49:17.360Z,23.87
2019-02-02T05:51:44.611Z,23.93
2019-02-02T05:54:11.877Z,24.27
2019-02-02T05:56:39.119Z,25.77
2019-02-02T05:59:06.386Z,24.43
2019-02-02T06:01:33.638Z,23.03
2019-02-02T06:04:01.061Z,24.50
2019-02-02T06:06:28.408Z,27.97
2019-02-02T06:08:55.801Z,23.37
2019-02-02T06:11:23.124Z,26.13
2019-02-02T06:13:50.654Z,24.67
2019-02-02T06:16:17.924Z,21.53
2019-02-02T06:18:45.181Z,24.37
2019-02-02T06:21:12.438Z,23.57
2019-02-02T06:23:39.723Z,24.13
2019-02-02T06:26:07.256Z,25.80
2019-02-02T06:28:34.499Z,28.20
2019-02-02T06:31:01.845Z,26.70
2019-02-02T06:33:29.206Z,25.23
2019-02-02T06:35:56.502Z,24.83
2019-02-02T06:38:23.868Z,24.83
2019-02-02T06:40:51.256Z,23.50
2019-02-02T06:43:18.865Z,22.40
2019-02-02T06:45:46.110Z,25.73
2019-02-02T06:48:13.669Z,23.87
2019-02-02T06:50:41.023Z,25.90
2019-02-02T06:53:08.269Z,25.43
2019-02-02T06:55:35.627Z,28.67
2019-02-02T06:58:03.372Z,26.73
2019-02-02T07:00:30.999Z,25.70
2019-02-02T07:02:58.325Z,27.43
2019-02-02T07:05:25.603Z,30.17
2019-02-02T07:07:52.897Z,31.43
2019-02-02T07:10:23.653Z,29.30
2019-02-02T07:12:51.535Z,32.57
2019-02-02T07:15:19.936Z,30.43
2019-02-02T07:17:47.297Z,30.80
2019-02-02T07:20:14.785Z,32.93
2019-02-02T07:22:42.139Z,30.13
2019-02-02T07:25:09.538Z,33.30
2019-02-02T07:27:36.927Z,31.17
2019-02-02T07:30:05.410Z,31.87
2019-02-02T07:32:32.732Z,34.93
2019-02-02T07:35:01.123Z,38.77
2019-02-02T07:37:28.620Z,33.20
2019-02-02T07:39:55.902Z,33.50
2019-02-02T07:42:23.300Z,33.10
2019-02-02T07:44:51.004Z,35.97
2019-02-02T07:47:18.363Z,33.00
2019-02-02T07:49:45.641Z,35.40
2019-02-02T07:52:13.257Z,33.73
2019-02-02T07:54:40.542Z,30.67
2019-02-02T07:57:07.829Z,33.57
2019-02-02T07:59:35.358Z,29.70
2019-02-02T08:02:02.871Z,32.27
2019-02-02T08:04:30.164Z,31.07
2019-02-02T08:06:57.450Z,34.10
2019-02-02T08:09:24.838Z,34.63
2019-02-02T08:11:52.173Z,32.80
2019-02-02T08:14:19.408Z,30.87
2019-02-02T08:16:46.943Z,32.00
2019-02-02T08:19:14.744Z,33.60
2019-02-02T08:21:42.060Z,31.73
2019-02-02T08:24:09.340Z,31.87
2019-02-02T08:26:36.870Z,34.23
2019-02-02T08:29:04.180Z,32.77
2019-02-02T08:31:31.637Z,34.40
2019-02-02T08:33:58.885Z,31.53
2019-02-02T08:36:26.154Z,32.07
2019-02-02T08:38:53.440Z,34.87
2019-02-02T08:41:20.805Z,34.07
2019-02-02T08:43:48.180Z,36.00
2019-02-02T08:46:15.737Z,30.43
2019-02-02T08:48:43.095Z,33.17
2019-02-02T08:51:10.393Z,31.03
2019-02-02T08:53:38.012Z,33.17
2019-02-02T08:56:05.338Z,32.20
2019-02-02T08:58:32.722Z,35.03
2019-02-02T09:01:04.150Z,34.07
2019-02-02T09:03:29.512Z,32.40
2019-02-02T09:05:56.811Z,34.40
2019-02-02T09:08:24.440Z,35.03
2019-02-02T09:10:51.696Z,33.33
2019-02-02T09:13:19.230Z,35.27
2019-02-02T09:15:46.478Z,38.10
2019-02-02T09:18:13.790Z,32.87
2019-02-02T09:20:41.160Z,33.67
2019-02-02T09:23:26.503Z,32.83
2019-02-02T09:25:54.478Z,33.17
2019-02-02T09:28:21.718Z,37.63
2019-02-02T09:30:49.000Z,34.27
2019-02-02T09:33:16.384Z,33.37
2019-02-02T09:35:44.250Z,34.30
2019-02-02T09:38:12.340Z,34.63
2019-02-02T09:40:39.763Z,33.33
2019-02-02T09:43:07.139Z,34.20
2019-02-02T09:45:34.401Z,33.07
2019-02-02T09:48:01.650Z,28.87
2019-02-02T09:50:29.028Z,32.73
2019-02-02T09:52:56.281Z,34.37
2019-02-02T09:55:23.960Z,31.00
2019-02-02T09:57:55.184Z,32.63
2019-02-02T10:00:22.791Z,31.57
2019-02-02T10:02:50.456Z,31.47
2019-02-02T10:05:19.202Z,31.03
2019-02-02T10:07:46.709Z,31.63
2019-02-02T10:10:15.308Z,34.10
2019-02-02T10:12:42.664Z,31.43
2019-02-02T10:15:10.266Z,32.47
2019-02-02T10:17:37.634Z,34.27
2019-02-02T10:20:05.304Z,33.10
2019-02-02T10:22:32.600Z,31.93
2019-02-02T10:24:59.953Z,32.67
2019-02-02T10:27:27.303Z,32.43
2019-02-02T10:29:54.790Z,31.87
2019-02-02T10:32:22.154Z,37.47
2019-02-02T10:34:49.506Z,31.17
2019-02-02T10:37:17.096Z,31.90
2019-02-02T10:39:44.714Z,33.53
2019-02-02T10:42:11.964Z,33.23
2019-02-02T10:44:39.258Z,32.53
2019-02-02T10:47:06.543Z,29.57
2019-02-02T10:49:34.021Z,30.70
2019-02-02T10:52:01.550Z,28.73
2019-02-02T10:54:29.109Z,31.70
2019-02-02T10:56:56.388Z,34.17
2019-02-02T10:59:23.673Z,30.57
2019-02-02T11:01:51.515Z,28.93
2019-02-02T11:04:19.155Z,30.27
2019-02-02T11:06:46.641Z,33.07
2019-02-02T11:09:14.266Z,32.33
2019-02-02T11:11:41.703Z,32.40
2019-02-02T11:14:09.195Z,31.10
2019-02-02T11:16:36.565Z,29.17
2019-02-02T11:19:04.078Z,34.33
2019-02-02T11:21:31.619Z,30.40
2019-02-02T11:23:59.005Z,29.47
2019-02-02T11:26:26.319Z,31.17
2019-02-02T11:28:53.901Z,31.47
2019-02-02T11:31:21.294Z,33.13
2019-02-02T11:33:48.535Z,33.20
2019-02-02T11:36:15.813Z,35.80
2019-02-02T11:38:43.091Z,33.67
2019-02-02T11:41:10.446Z,38.77
2019-02-02T11:43:37.818Z,35.27
2019-02-02T11:46:05.236Z,33.87
2019-02-02T11:48:32.669Z,32.40
2019-02-02T11:51:00.197Z,29.63
2019-02-02T11:53:27.497Z,31.63
2019-02-02T11:55:54.889Z,32.30
2019-02-02T11:58:22.427Z,33.37
2019-02-02T12:00:49.795Z,31.93
2019-02-02T12:03:17.466Z,31.87
2019-02-02T12:05:44.848Z,32.10
2019-02-02T12:08:12.121Z,33.33
2019-02-02T12:10:39.527Z,32.17
2019-02-02T12:13:06.869Z,31.80
2019-02-02T12:15:34.702Z,33.67
2019-02-02T12:18:03.492Z,35.93
2019-02-02T12:20:33.106Z,31.33
2019-02-02T12:22:59.919Z,32.60
2019-02-02T12:25:27.394Z,35.20
2019-02-02T12:27:54.655Z,29.67
2019-02-02T12:30:23.244Z,28.97
2019-02-02T12:32:50.513Z,26.97
2019-02-02T12:35:18.645Z,29.60
2019-02-02T12:37:46.104Z,29.80
2019-02-02T12:40:13.855Z,30.70
2019-02-02T12:42:41.145Z,23.17
2019-02-02T12:45:10.218Z,24.90
2019-02-02T12:47:37.525Z,21.83
2019-02-02T12:50:05.179Z,25.17
2019-02-02T12:52:32.812Z,26.10
2019-02-02T12:55:00.404Z,24.63
2019-02-02T12:57:27.737Z,26.37
2019-02-02T12:59:55.010Z,27.13
2019-02-02T13:02:25.383Z,26.87
2019-02-02T13:04:52.089Z,26.90
2019-02-02T13:07:19.455Z,26.87
2019-02-02T13:09:46.707Z,25.43
2019-02-02T13:12:14.294Z,27.73
2019-02-02T13:14:41.672Z,25.97
2019-02-02T13:17:09.012Z,25.80
2019-02-02T13:19:36.557Z,25.33
2019-02-02T13:22:03.868Z,27.03
2019-02-02T13:24:31.394Z,26.90
2019-02-02T13:26:59.811Z,23.83
2019-02-02T13:29:27.078Z,22.43
2019-02-02T13:31:54.382Z,24.03
2019-02-02T13:34:21.677Z,26.53
2019-02-02T13:36:49.053Z,25.30
2019-02-02T13:39:16.389Z,25.73
2019-02-02T13:41:43.671Z,22.40
2019-02-02T13:44:11.034Z,19.97
2019-02-02T13:46:41.339Z,20.87
2019-02-02T13:49:10.948Z,22.30
2019-02-02T13:51:38.344Z,27.03
2019-02-02T13:54:05.628Z,22.57
2019-02-02T13:56:32.976Z,23.73
2019-02-02T13:59:00.266Z,31.33
2019-02-02T14:01:27.871Z,26.17
2019-02-02T14:03:55.199Z,22.93
2019-02-02T14:06:22.571Z,23.47
2019-02-02T14:08:49.940Z,22.20
2019-02-02T14:11:17.620Z,20.77
2019-02-02T14:13:45.131Z,24.93
2019-02-02T14:16:12.386Z,21.13
2019-02-02T14:18:39.694Z,21.63
2019-02-02T14:21:07.056Z,20.87
2019-02-02T14:23:34.418Z,23.80
2019-02-02T14:26:01.799Z,22.83
2019-02-02T14:28:29.506Z,24.57
2019-02-02T14:30:57.040Z,31.17
2019-02-02T14:33:24.441Z,27.10
2019-02-02T14:35:51.820Z,25.63
2019-02-02T14:38:20.380Z,26.13
2019-02-02T14:40:48.401Z,26.03
2019-02-02T14:43:15.764Z,23.43
2019-02-02T14:45:43.143Z,26.47
2019-02-02T14:48:10.512Z,23.73
2019-02-02T14:50:38.152Z,23.27
2019-02-02T14:53:05.659Z,22.97
2019-02-02T14:55:32.927Z,26.83
2019-02-02T14:58:00.207Z,22.93
2019-02-02T15:00:28.112Z,24.33
2019-02-02T15:02:55.394Z,28.57
2019-02-02T15:05:22.990Z,22.60
2019-02-02T15:07:50.463Z,22.87
2019-02-02T15:10:18.039Z,24.87
2019-02-02T15:12:45.685Z,24.47
2019-02-02T15:15:13.264Z,25.13
2019-02-02T15:17:40.565Z,24.90
2019-02-02T15:20:10.369Z,22.40
2019-02-02T15:22:38.253Z,31.10
2019-02-02T15:25:05.529Z,23.73
2019-02-02T15:27:33.074Z,22.77
2019-02-02T15:30:00.370Z,23.53
2019-02-02T15:32:28.309Z,25.83
2019-02-02T15:34:55.725Z,21.07
2019-02-02T15:37:22.988Z,20.67
2019-02-02T15:39:50.277Z,24.47
2019-02-02T15:42:17.622Z,22.27
2019-02-02T15:44:44.918Z,21.77
2019-02-02T15:47:12.203Z,25.00
2019-02-02T15:49:39.476Z,23.20
2019-02-02T15:52:06.752Z,24.73
2019-02-02T15:54:33.993Z,23.33
2019-02-02T15:57:01.285Z,19.87
2019-02-02T15:59:28.731Z,24.17
2019-02-02T16:01:55.994Z,25.27
2019-02-02T16:04:23.265Z,23.40
2019-02-02T16:06:50.525Z,19.33
2019-02-02T16:09:17.837Z,18.23
2019-02-02T16:11:45.103Z,18.20
2019-02-02T16:14:12.364Z,16.27
2019-02-02T16:16:39.705Z,17.13
2019-02-02T16:19:07.650Z,19.90
2019-02-02T16:21:35.030Z,16.90
2019-02-02T16:24:02.514Z,15.37
2019-02-02T16:26:29.905Z,16.10
2019-02-02T16:28:57.305Z,15.07
2019-02-02T16:31:24.645Z,16.27
2019-02-02T16:34:01.699Z,17.40
2019-02-02T16:36:21.141Z,17.50
2019-02-02T16:38:48.405Z,17.53
2019-02-02T16:41:15.695Z,19.33
2019-02-02T16:43:43.101Z,17.30
2019-02-02T16:46:10.980Z,19.47
2019-02-02T16:48:38.888Z,18.00
2019-02-02T16:51:06.275Z,19.20
2019-02-02T16:53:36.376Z,18.30
2019-02-02T16:56:03.857Z,22.60
2019-02-02T16:58:31.578Z,16.03
2019-02-02T17:01:38.393Z,20.47
2019-02-02T17:07:04.505Z,19.70
2019-02-02T17:09:31.944Z,18.50
2019-02-02T17:11:59.340Z,19.93
2019-02-02T17:14:26.712Z,19.77
2019-02-02T17:16:53.987Z,25.97
2019-02-02T17:19:21.669Z,22.00
2019-02-02T17:21:48.990Z,22.17
2019-02-02T17:24:16.242Z,21.90
2019-02-02T17:26:43.851Z,20.23
2019-02-02T17:29:11.389Z,24.10
2019-02-02T17:31:38.773Z,21.53
2019-02-02T17:34:06.138Z,22.40
2019-02-02T17:36:33.443Z,21.47
2019-02-02T17:39:00.780Z,19.47
2019-02-02T17:41:28.438Z,19.80
2019-02-02T17:43:55.818Z,23.17
2019-02-02T17:46:23.075Z,20.87
2019-02-02T17:48:50.416Z,20.17
2019-02-02T17:51:17.683Z,25.77
2019-02-02T17:53:45.045Z,22.27
2019-02-02T17:56:12.570Z,26.13
2019-02-02T17:58:40.105Z,23.30
2019-02-02T18:01:07.409Z,26.43
2019-02-02T18:03:35.233Z,26.87
2019-02-02T18:06:02.623Z,23.87
2019-02-02T18:08:29.960Z,27.17
2019-02-02T18:10:57.532Z,23.47
2019-02-02T18:13:24.839Z,24.80
2019-02-02T18:15:52.193Z,28.70
2019-02-02T18:18:19.485Z,31.73
2019-02-02T18:20:46.852Z,28.93
2019-02-02T18:23:14.138Z,23.67
2019-02-02T18:25:41.430Z,24.60
2019-02-02T18:28:09.761Z,25.43
2019-02-02T18:30:37.320Z,25.47
2019-02-02T18:33:04.622Z,30.60
2019-02-02T18:35:31.877Z,29.37
2019-02-02T18:37:59.153Z,32.67
2019-02-02T18:40:26.443Z,27.77
2019-02-02T18:42:53.798Z,29.20
2019-02-02T18:45:21.943Z,27.70
2019-02-02T18:47:49.234Z,31.33
2019-02-02T18:50:16.584Z,29.30
2019-02-02T18:52:44.099Z,28.73
2019-02-02T18:55:12.800Z,27.17
2019-02-02T18:57:40.330Z,28.50
2019-02-02T19:00:09.737Z,26.47
2019-02-02T19:02:37.387Z,28.90
2019-02-02T19:05:05.256Z,30.57
2019-02-02T19:07:32.887Z,24.53
2019-02-02T19:10:00.241Z,29.67
2019-02-02T19:12:27.507Z,30.03
2019-02-02T19:14:54.776Z,26.57
2019-02-02T19:17:22.075Z,26.70
2019-02-02T19:19:49.309Z,25.23
2019-02-02T19:22:16.958Z,24.23
2019-02-02T19:24:44.256Z,25.47
2019-02-02T19:27:11.516Z,25.57
2019-02-02T19:29:38.866Z,27.60
2019-02-02T19:32:06.510Z,25.67
2019-02-02T19:34:33.774Z,28.90
2019-02-02T19:37:01.284Z,26.97
2019-02-02T19:39:28.653Z,28.23
2019-02-02T19:41:55.993Z,27.40
2019-02-02T19:44:23.340Z,28.40
2019-02-02T19:46:50.619Z,29.97
2019-02-02T19:49:17.985Z,30.20
2019-02-02T19:51:45.388Z,27.47
2019-02-02T19:54:13.128Z,28.33
2019-02-02T19:56:40.515Z,28.80
2019-02-02T19:59:07.883Z,27.23
2019-02-02T20:01:35.152Z,28.53
2019-02-02T20:04:02.423Z,28.20
2019-02-02T20:06:29.683Z,33.20
2019-02-02T20:08:57.364Z,28.63
2019-02-02T20:11:24.726Z,33.07
2019-02-02T20:13:52.012Z,32.10
2019-02-02T20:16:19.582Z,28.40
2019-02-02T20:18:46.965Z,29.53
2019-02-02T20:21:14.485Z,31.53
2019-02-02T20:23:41.748Z,35.93
2019-02-02T20:26:09.016Z,28.17
2019-02-02T20:28:36.396Z,27.30
2019-02-02T20:31:03.647Z,27.63
2019-02-02T20:33:31.166Z,27.63
2019-02-02T20:35:58.489Z,33.60
2019-02-02T20:38:26.112Z,30.03
2019-02-02T20:40:53.618Z,29.20
2019-02-02T20:43:20.998Z,29.83
2019-02-02T20:45:48.359Z,32.77
2019-02-02T20:48:15.701Z,34.60
2019-02-02T20:50:43.054Z,30.43
2019-02-02T20:53:10.445Z,28.37
2019-02-02T20:55:39.240Z,33.03
2019-02-02T20:58:06.890Z,28.70
2019-02-02T21:00:34.333Z,31.27
2019-02-02T21:03:01.716Z,33.40
2019-02-02T21:05:31.789Z,30.47
2019-02-02T21:07:59.190Z,31.13
2019-02-02T21:10:26.993Z,32.23
2019-02-02T21:12:54.379Z,34.47
2019-02-02T21:15:21.824Z,32.30
2019-02-02T21:17:49.196Z,31.90
2019-02-02T21:20:20.565Z,32.40
2019-02-02T21:22:48.206Z,32.00
2019-02-02T21:25:15.881Z,32.77
2019-02-02T21:27:43.293Z,30.93
2019-02-02T21:30:12.309Z,31.27
2019-02-02T21:32:39.572Z,31.73
2019-02-02T21:35:07.078Z,32.50
2019-02-02T21:37:34.730Z,32.10
2019-02-02T21:40:02.092Z,32.57
2019-02-02T21:42:29.843Z,31.63
2019-02-02T21:44:57.453Z,34.57
2019-02-02T21:47:24.823Z,34.93
2019-02-02T21:49:52.170Z,34.43
2019-02-02T21:52:19.816Z,34.70
2019-02-02T21:54:47.089Z,34.90
2019-02-02T21:57:14.447Z,36.53
2019-02-02T21:59:41.693Z,33.53
2019-02-02T22:02:08.965Z,34.73
2019-02-02T22:04:36.225Z,34.10
2019-02-02T22:07:03.642Z,33.10
2019-02-02T22:09:31.572Z,32.07
2019-02-02T22:11:59.315Z,35.67
2019-02-02T22:14:26.956Z,34.20
2019-02-02T22:16:54.310Z,33.93
2019-02-02T22:19:21.674Z,35.57
2019-02-02T22:21:48.928Z,36.40
2019-02-02T22:24:16.511Z,32.00
2019-02-02T22:26:43.907Z,33.50
2019-02-02T22:29:11.397Z,32.73
2019-02-02T22:31:38.756Z,41.53
2019-02-02T22:34:06.146Z,33.90
2019-02-02T22:36:33.705Z,32.73
2019-02-02T22:39:01.053Z,33.67
2019-02-02T22:41:28.418Z,32.00
2019-02-02T22:43:55.842Z,31.67
2019-02-02T22:46:23.445Z,31.77
2019-02-02T22:48:50.802Z,32.40
2019-02-02T22:51:18.096Z,31.17
2019-02-02T22:53:45.732Z,34.83
2019-02-02T22:56:13.083Z,32.17
2019-02-02T22:58:40.799Z,30.47
2019-02-02T23:01:13.583Z,31.40
2019-02-02T23:03:56.497Z,29.87
2019-02-02T23:06:42.045Z,32.50
2019-02-02T23:09:44.035Z,27.60
2019-02-02T23:12:17.510Z,25.80
2019-02-02T23:15:02.740Z,27.93
2019-02-02T23:17:30.160Z,26.47
2019-02-02T23:20:00.346Z,25.77
2019-02-02T23:22:26.888Z,27.97
2019-02-02T23:24:54.537Z,27.87
2019-02-02T23:27:21.883Z,27.03
2019-02-02T23:29:49.259Z,26.33
2019-02-02T23:32:16.912Z,26.60
2019-02-02T23:34:44.271Z,24.97
2019-02-02T23:37:11.603Z,24.37
2019-02-02T23:39:38.983Z,25.33
2019-02-02T23:42:06.367Z,24.57
2019-02-02T23:44:33.724Z,26.27
2019-02-02T23:47:00.977Z,25.77
2019-02-02T23:49:28.354Z,27.00
2019-02-02T23:51:55.828Z,26.00
2019-02-02T23:54:23.450Z,25.87
2019-02-02T23:56:50.737Z,26.77
2019-02-02T23:59:18.092Z,24.87
